createdAt,value
2022-08-10T00:02:19.854Z,5.80
2022-08-10T00:05:23.898Z,5.63
2022-08-10T00:08:29.043Z,5.93
2022-08-10T00:11:32.349Z,5.15
2022-08-10T00:14:35.667Z,5.35
2022-08-10T00:17:39.435Z,5.25
2022-08-10T00:20:42.796Z,5.40
2022-08-10T00:23:47.585Z,5.20
2022-08-10T00:28:01.609Z,5.40
2022-08-10T00:30:14.908Z,5.50
2022-08-10T00:33:18.510Z,5.80
2022-08-10T00:36:21.843Z,5.50
2022-08-10T00:39:27.087Z,5.53
2022-08-10T00:42:30.505Z,5.45
2022-08-10T00:45:34.058Z,5.40
2022-08-10T00:48:37.434Z,5.97
2022-08-10T00:51:48.403Z,5.70
2022-08-10T00:54:54.241Z,5.63
2022-08-10T00:57:58.302Z,5.57
2022-08-10T01:01:01.674Z,5.25
2022-08-10T01:04:58.090Z,5.68
2022-08-10T01:07:45.974Z,5.57
2022-08-10T01:11:02.000Z,6.15
2022-08-10T01:14:12.816Z,5.45
2022-08-10T01:17:24.096Z,5.70
2022-08-10T01:21:07.943Z,6.45
2022-08-10T01:24:31.950Z,6.40
2022-08-10T01:27:42.064Z,5.47
2022-08-10T01:30:48.391Z,5.93
2022-08-10T01:33:58.549Z,6.18
2022-08-10T01:37:13.311Z,5.97
2022-08-10T01:40:18.613Z,6.00
2022-08-10T01:43:22.484Z,5.30
2022-08-10T01:46:30.537Z,4.65
2022-08-10T01:49:35.787Z,4.63
2022-08-10T01:52:43.145Z,4.63
2022-08-10T01:55:50.034Z,5.00
2022-08-10T01:58:58.392Z,5.05
2022-08-10T02:02:05.430Z,5.28
2022-08-10T02:05:10.328Z,5.20
2022-08-10T02:08:17.502Z,4.80
2022-08-10T02:11:22.298Z,4.75
2022-08-10T02:14:33.345Z,5.07
2022-08-10T02:17:57.821Z,4.93
2022-08-10T02:21:05.964Z,4.70
2022-08-10T02:24:13.788Z,4.63
2022-08-10T02:27:17.994Z,4.07
2022-08-10T02:30:22.253Z,4.65
2022-08-10T02:33:29.033Z,4.15
2022-08-10T02:36:35.815Z,5.18
2022-08-10T02:39:39.336Z,4.68
2022-08-10T02:45:20.241Z,4.85
2022-08-10T02:46:21.025Z,4.47
2022-08-10T02:49:32.644Z,4.53
2022-08-10T02:52:42.430Z,4.90
2022-08-10T02:55:50.784Z,4.15
2022-08-10T02:58:58.103Z,4.30
2022-08-10T03:02:05.167Z,4.97
2022-08-10T03:05:12.434Z,4.32
2022-08-10T03:08:20.541Z,4.57
2022-08-10T03:12:37.211Z,4.32
2022-08-10T03:14:51.256Z,4.43
2022-08-10T03:17:57.945Z,4.70
2022-08-10T03:21:07.724Z,4.47
2022-08-10T03:24:32.769Z,4.50
2022-08-10T03:27:37.823Z,4.60
2022-08-10T03:30:42.189Z,4.40
2022-08-10T03:33:47.278Z,4.43
2022-08-10T03:36:52.171Z,4.43
2022-08-10T03:39:55.939Z,4.13
2022-08-10T03:43:02.093Z,4.43
2022-08-10T03:46:09.603Z,4.55
2022-08-10T03:49:13.559Z,4.43
2022-08-10T03:52:20.091Z,4.55
2022-08-10T03:56:28.632Z,4.53
2022-08-10T03:58:47.989Z,4.43
2022-08-10T04:02:52.880Z,4.72
2022-08-10T04:05:16.776Z,4.50
2022-08-10T04:08:21.653Z,4.50
2022-08-10T04:11:24.919Z,5.03
2022-08-10T04:14:38.811Z,4.68
2022-08-10T04:18:03.876Z,4.47
2022-08-10T04:21:13.596Z,4.72
2022-08-10T04:24:29.605Z,5.05
2022-08-10T04:27:35.364Z,4.50
2022-08-10T04:30:39.867Z,4.43
2022-08-10T04:33:48.605Z,4.40
2022-08-10T04:36:54.086Z,4.88
2022-08-10T04:39:59.212Z,4.40
2022-08-10T04:43:10.849Z,4.38
2022-08-10T04:46:42.906Z,4.43
2022-08-10T04:49:55.220Z,4.35
2022-08-10T04:53:00.326Z,4.57
2022-08-10T04:56:05.560Z,4.43
2022-08-10T04:59:10.348Z,4.47
2022-08-10T05:02:31.026Z,4.97
2022-08-10T05:05:35.307Z,4.78
2022-08-10T05:08:38.646Z,4.53
2022-08-10T05:11:44.158Z,4.38
2022-08-10T05:14:47.535Z,4.53
2022-08-10T05:18:08.636Z,4.18
2022-08-10T05:22:02.505Z,4.03
2022-08-10T05:24:36.613Z,4.78
2022-08-10T05:27:42.674Z,4.10
2022-08-10T05:30:46.006Z,5.10
2022-08-10T05:33:49.318Z,5.03
2022-08-10T05:36:52.911Z,4.60
2022-08-10T05:39:56.751Z,4.07
2022-08-10T05:43:01.587Z,4.78
2022-08-10T05:46:19.386Z,4.75
2022-08-10T05:49:24.329Z,4.30
2022-08-10T05:52:27.908Z,4.60
2022-08-10T05:55:32.674Z,4.15
2022-08-10T05:58:37.959Z,4.25
2022-08-10T06:01:45.268Z,4.38
2022-08-10T06:05:10.836Z,4.13
2022-08-10T06:08:17.110Z,4.10
2022-08-10T06:12:24.659Z,4.30
2022-08-10T06:15:05.374Z,4.65
2022-08-10T06:18:10.544Z,4.95
2022-08-10T06:21:15.944Z,5.20
2022-08-10T06:24:25.445Z,5.43
2022-08-10T06:27:34.904Z,4.68
2022-08-10T06:30:41.283Z,4.60
2022-08-10T06:33:46.842Z,4.93
2022-08-10T06:36:53.098Z,4.90
2022-08-10T06:39:57.355Z,5.13
2022-08-10T06:43:02.794Z,4.45
2022-08-10T06:46:13.680Z,5.18
2022-08-10T06:49:19.826Z,4.68
2022-08-10T06:52:24.566Z,4.85
2022-08-10T06:55:40.151Z,4.90
2022-08-10T06:58:58.639Z,5.45
2022-08-10T07:02:07.259Z,4.65
2022-08-10T07:05:16.550Z,5.10
2022-08-10T07:08:21.926Z,5.03
2022-08-10T07:11:26.815Z,4.78
2022-08-10T07:14:32.038Z,5.45
2022-08-10T07:17:39.708Z,5.10
2022-08-10T07:20:44.096Z,5.00
2022-08-10T07:23:57.559Z,5.07
2022-08-10T07:27:04.993Z,4.88
2022-08-10T07:30:09.674Z,5.10
2022-08-10T07:33:18.648Z,4.72
2022-08-10T07:36:24.398Z,4.47
2022-08-10T07:39:58.022Z,4.80
2022-08-10T07:42:59.510Z,4.25
2022-08-10T07:46:05.409Z,3.88
2022-08-10T07:49:21.075Z,4.20
2022-08-10T07:52:25.293Z,4.28
2022-08-10T07:56:03.554Z,4.07
2022-08-10T07:59:05.840Z,4.13
2022-08-10T08:02:14.498Z,4.22
2022-08-10T08:05:29.864Z,4.15
2022-08-10T08:08:46.956Z,3.78
2022-08-10T08:11:52.768Z,4.15
2022-08-10T08:14:59.313Z,4.57
2022-08-10T08:18:05.557Z,4.38
2022-08-10T08:24:02.356Z,4.57
2022-08-10T08:24:38.877Z,4.63
2022-08-10T08:27:47.501Z,4.50
2022-08-10T08:30:52.808Z,4.03
2022-08-10T08:33:57.665Z,4.32
2022-08-10T08:37:04.106Z,4.15
2022-08-10T08:40:11.893Z,4.80
2022-08-10T08:43:29.732Z,4.57
2022-08-10T08:48:02.226Z,4.30
2022-08-10T08:50:41.328Z,4.07
2022-08-10T08:54:04.183Z,3.97
2022-08-10T08:57:49.140Z,4.68
2022-08-10T09:00:46.921Z,4.22
2022-08-10T09:04:16.107Z,4.60
2022-08-10T09:08:00.041Z,4.20
2022-08-10T09:11:16.751Z,3.75
2022-08-10T09:14:26.129Z,4.30
2022-08-10T09:17:43.100Z,4.35
2022-08-10T09:21:04.978Z,4.40
2022-08-10T09:24:19.859Z,4.25
2022-08-10T09:27:33.893Z,3.72
2022-08-10T09:31:21.347Z,4.20
2022-08-10T09:36:25.988Z,4.10
2022-08-10T09:38:02.160Z,3.95
2022-08-10T09:41:21.205Z,3.78
2022-08-10T09:44:35.938Z,3.80
2022-08-10T09:48:08.195Z,3.80
2022-08-10T09:51:44.713Z,3.83
2022-08-10T09:55:05.326Z,4.13
2022-08-10T09:58:31.990Z,3.90
2022-08-10T10:01:58.339Z,4.18
2022-08-10T10:05:24.916Z,3.85
2022-08-10T10:08:33.670Z,3.88
2022-08-10T10:11:49.192Z,3.80
2022-08-10T10:15:25.213Z,4.00
2022-08-10T10:18:45.769Z,4.40
2022-08-10T10:21:56.490Z,4.57
2022-08-10T10:25:19.748Z,3.55
2022-08-10T10:29:15.303Z,4.20
2022-08-10T10:32:09.943Z,3.95
2022-08-10T10:35:24.618Z,3.83
2022-08-10T10:38:33.766Z,3.60
2022-08-10T10:42:03.225Z,3.97
2022-08-10T10:45:16.442Z,3.80
2022-08-10T10:48:29.344Z,4.10
2022-08-10T10:51:39.393Z,4.65
2022-08-10T10:54:54.827Z,3.97
2022-08-10T10:58:06.063Z,4.03
2022-08-10T11:01:16.302Z,4.28
2022-08-10T11:04:25.289Z,4.00
2022-08-10T11:07:39.714Z,3.92
2022-08-10T11:10:48.289Z,4.10
2022-08-10T11:14:24.499Z,3.92
2022-08-10T11:17:34.889Z,4.57
2022-08-10T11:20:43.445Z,4.28
2022-08-10T11:24:47.006Z,3.80
2022-08-10T11:27:24.656Z,3.78
2022-08-10T11:30:32.715Z,4.30
2022-08-10T11:34:04.061Z,5.03
2022-08-10T11:37:20.927Z,4.10
2022-08-10T11:40:29.601Z,4.70
2022-08-10T11:43:39.657Z,4.28
2022-08-10T11:46:54.808Z,5.25
2022-08-10T11:50:03.125Z,4.00
2022-08-10T11:53:16.435Z,4.57
2022-08-10T11:56:27.519Z,5.13
2022-08-10T11:59:57.921Z,5.93
2022-08-10T12:03:07.588Z,4.88
2022-08-10T12:06:28.684Z,4.18
2022-08-10T12:10:09.306Z,4.82
2022-08-10T12:13:09.731Z,5.30
2022-08-10T12:16:17.515Z,5.30
2022-08-10T12:19:25.507Z,5.70
2022-08-10T12:22:34.654Z,5.28
2022-08-10T12:25:54.912Z,4.90
2022-08-10T12:29:08.012Z,5.75
2022-08-10T12:32:18.087Z,6.47
2022-08-10T12:35:35.661Z,8.07
2022-08-10T12:38:43.532Z,6.15
2022-08-10T12:41:54.400Z,6.38
2022-08-10T12:45:04.718Z,6.30
2022-08-10T12:48:15.704Z,5.03
2022-08-10T12:51:24.241Z,6.70
2022-08-10T12:54:32.375Z,7.30
2022-08-10T12:57:38.192Z,7.43
2022-08-10T13:01:05.720Z,5.30
2022-08-10T13:04:23.518Z,4.80
2022-08-10T13:08:25.611Z,4.40
2022-08-10T13:11:00.983Z,4.80
2022-08-10T13:14:15.686Z,4.15
2022-08-10T13:17:39.009Z,4.80
2022-08-10T13:20:43.559Z,4.20
2022-08-10T13:24:04.952Z,4.43
2022-08-10T13:27:25.951Z,4.38
2022-08-10T13:30:37.937Z,4.22
2022-08-10T13:34:36.544Z,4.47
2022-08-10T13:37:18.204Z,4.57
2022-08-10T13:40:22.674Z,3.80
2022-08-10T13:43:27.007Z,4.28
2022-08-10T13:46:31.085Z,4.13
2022-08-10T13:49:46.562Z,4.35
2022-08-10T13:52:54.156Z,3.70
2022-08-10T13:56:01.966Z,3.50
2022-08-10T13:59:09.934Z,3.50
2022-08-10T14:02:24.193Z,3.33
2022-08-10T14:05:32.352Z,3.25
2022-08-10T14:08:38.020Z,2.90
2022-08-10T14:11:47.632Z,3.60
2022-08-10T14:14:53.306Z,3.00
2022-08-10T14:18:00.069Z,3.30
2022-08-10T14:21:05.797Z,2.85
2022-08-10T14:24:21.776Z,3.40
2022-08-10T14:27:25.555Z,3.08
2022-08-10T14:30:57.891Z,3.30
2022-08-10T14:34:02.332Z,3.50
2022-08-10T14:37:11.327Z,4.05
2022-08-10T14:40:17.853Z,4.18
2022-08-10T14:43:28.501Z,3.38
2022-08-10T14:46:34.225Z,4.00
2022-08-10T14:49:57.537Z,5.03
2022-08-10T14:53:09.412Z,4.32
2022-08-10T14:56:14.768Z,4.00
2022-08-10T14:59:20.342Z,4.18
2022-08-10T15:02:38.862Z,4.68
2022-08-10T15:05:46.457Z,4.20
2022-08-10T15:08:52.213Z,4.35
2022-08-10T15:12:13.241Z,4.03
2022-08-10T15:15:27.760Z,4.20
2022-08-10T15:18:33.655Z,3.92
2022-08-10T15:21:43.466Z,4.38
2022-08-10T15:25:04.714Z,4.68
2022-08-10T15:28:11.654Z,4.25
2022-08-10T15:31:19.588Z,3.92
2022-08-10T15:34:41.765Z,3.30
2022-08-10T15:37:46.705Z,3.58
2022-08-10T15:40:53.836Z,4.20
2022-08-10T15:43:57.734Z,3.55
2022-08-10T15:47:05.217Z,3.15
2022-08-10T15:50:12.822Z,3.78
2022-08-10T15:53:27.708Z,3.55
2022-08-10T15:56:36.818Z,3.67
2022-08-10T15:59:44.532Z,3.78
2022-08-10T16:02:53.362Z,4.30
2022-08-10T16:06:00.372Z,4.18
2022-08-10T16:10:10.503Z,4.20
2022-08-10T16:12:40.228Z,4.05
2022-08-10T16:15:52.154Z,3.80
2022-08-10T16:18:56.095Z,4.38
2022-08-10T16:22:36.706Z,4.43
2022-08-10T16:25:48.412Z,4.63
2022-08-10T16:28:59.085Z,4.68
2022-08-10T16:32:05.469Z,4.45
2022-08-10T16:35:11.926Z,4.15
2022-08-10T16:38:15.509Z,4.35
2022-08-10T16:42:02.137Z,4.35
2022-08-10T16:44:54.519Z,4.40
2022-08-10T16:47:58.963Z,4.30
2022-08-10T16:51:04.668Z,5.00
2022-08-10T16:54:10.505Z,4.95
2022-08-10T16:57:16.046Z,4.60
2022-08-10T17:00:22.572Z,4.63
2022-08-10T17:04:06.734Z,4.28
2022-08-10T17:06:57.315Z,4.90
2022-08-10T17:10:07.860Z,4.70
2022-08-10T17:13:13.064Z,4.65
2022-08-10T17:16:20.778Z,4.75
2022-08-10T17:19:25.719Z,4.20
2022-08-10T17:22:35.277Z,5.22
2022-08-10T17:25:48.784Z,4.60
2022-08-10T17:28:59.668Z,4.70
2022-08-10T17:32:09.701Z,4.88
2022-08-10T17:35:14.600Z,4.60
2022-08-10T17:38:22.165Z,4.32
2022-08-10T17:41:28.889Z,4.03
2022-08-10T17:44:36.984Z,4.00
2022-08-10T17:47:50.009Z,4.28
2022-08-10T17:50:54.266Z,4.07
2022-08-10T17:53:59.723Z,3.53
2022-08-10T17:57:08.202Z,4.10
2022-08-10T18:00:14.896Z,4.13
2022-08-10T18:03:25.258Z,4.38
2022-08-10T18:06:31.059Z,4.10
2022-08-10T18:09:36.553Z,3.70
2022-08-10T18:12:44.616Z,4.32
2022-08-10T18:15:49.703Z,3.65
2022-08-10T18:19:00.139Z,4.13
2022-08-10T18:22:05.376Z,3.92
2022-08-10T18:25:17.192Z,4.20
2022-08-10T18:28:22.782Z,4.10
2022-08-10T18:31:28.117Z,3.95
2022-08-10T18:34:35.246Z,4.22
2022-08-10T18:37:39.768Z,3.95
2022-08-10T18:40:50.577Z,3.85
2022-08-10T18:44:10.288Z,4.45
2022-08-10T18:47:19.050Z,4.13
2022-08-10T18:50:29.105Z,4.00
2022-08-10T18:53:37.200Z,4.07
2022-08-10T18:56:56.440Z,4.30
2022-08-10T19:00:19.137Z,4.20
2022-08-10T19:03:53.965Z,3.70
2022-08-10T19:07:16.445Z,3.85
2022-08-10T19:10:37.072Z,4.35
2022-08-10T19:13:50.940Z,4.35
2022-08-10T19:17:07.169Z,4.38
2022-08-10T19:20:20.209Z,4.25
2022-08-10T19:23:43.315Z,4.80
2022-08-10T19:26:54.915Z,5.32
2022-08-10T19:30:11.774Z,5.45
2022-08-10T19:33:26.645Z,5.32
2022-08-10T19:36:37.042Z,5.05
2022-08-10T19:39:52.509Z,5.00
2022-08-10T19:43:09.203Z,5.13
2022-08-10T19:46:28.059Z,4.65
2022-08-10T19:49:41.579Z,5.03
2022-08-10T19:52:55.664Z,5.00
2022-08-10T19:56:31.068Z,4.63
2022-08-10T20:00:02.039Z,4.90
2022-08-10T20:03:24.292Z,4.60
2022-08-10T20:06:33.238Z,5.13
2022-08-10T20:09:43.595Z,4.40
2022-08-10T20:12:58.831Z,4.53
2022-08-10T20:16:07.305Z,4.57
2022-08-10T20:19:13.776Z,4.55
2022-08-10T20:22:29.360Z,4.88
2022-08-10T20:25:34.102Z,4.45
2022-08-10T20:28:42.867Z,4.07
2022-08-10T20:31:57.924Z,4.10
2022-08-10T20:35:07.733Z,4.45
2022-08-10T20:38:14.722Z,5.05
2022-08-10T20:41:26.145Z,4.20
2022-08-10T20:44:43.519Z,4.28
2022-08-10T20:47:56.099Z,4.50
2022-08-10T20:51:03.414Z,4.43
2022-08-10T20:54:10.292Z,4.82
2022-08-10T20:58:04.053Z,3.95
2022-08-10T21:01:16.927Z,4.53
2022-08-10T21:04:38.828Z,4.00
2022-08-10T21:08:02.566Z,4.53
2022-08-10T21:11:15.637Z,4.05
2022-08-10T21:14:35.819Z,4.25
2022-08-10T21:17:52.615Z,4.57
2022-08-10T21:21:06.486Z,4.20
2022-08-10T21:24:16.800Z,4.15
2022-08-10T21:27:39.780Z,4.45
2022-08-10T21:30:53.420Z,3.97
2022-08-10T21:34:32.038Z,4.22
2022-08-10T21:37:44.855Z,4.80
2022-08-10T21:41:57.653Z,4.50
2022-08-10T21:45:59.076Z,4.78
2022-08-10T21:49:23.083Z,4.65
2022-08-10T21:52:53.462Z,4.55
2022-08-10T21:56:19.610Z,4.80
2022-08-10T21:59:48.787Z,4.93
2022-08-10T22:03:11.320Z,4.47
2022-08-10T22:06:33.833Z,4.65
2022-08-10T22:10:03.934Z,4.63
2022-08-10T22:13:26.338Z,4.22
2022-08-10T22:16:56.866Z,4.95
2022-08-10T22:20:27.116Z,4.72
2022-08-10T22:24:16.769Z,4.38
2022-08-10T22:27:48.874Z,5.13
2022-08-10T22:31:31.581Z,5.00
2022-08-10T22:35:20.449Z,4.78
2022-08-10T22:39:02.210Z,5.03
2022-08-10T22:42:59.391Z,4.43
2022-08-10T22:46:19.725Z,4.80
2022-08-10T22:49:22.581Z,4.88
2022-08-10T22:52:29.763Z,4.85
2022-08-10T22:56:07.008Z,4.97
2022-08-10T22:59:11.120Z,4.72
2022-08-10T23:02:28.243Z,5.45
2022-08-10T23:05:34.896Z,5.15
2022-08-10T23:08:45.468Z,5.30
2022-08-10T23:11:53.852Z,4.97
2022-08-10T23:15:18.686Z,5.13
2022-08-10T23:18:55.577Z,5.07
2022-08-10T23:22:05.545Z,5.03
2022-08-10T23:25:12.131Z,5.07
2022-08-10T23:28:19.870Z,5.05
2022-08-10T23:32:00.712Z,5.50
2022-08-10T23:36:30.313Z,5.30
2022-08-10T23:38:41.220Z,5.72
2022-08-10T23:41:46.651Z,5.55
2022-08-10T23:44:58.923Z,5.60
2022-08-10T23:48:03.573Z,5.97
2022-08-10T23:51:17.113Z,6.03
2022-08-10T23:54:23.295Z,6.03
2022-08-10T23:57:29.201Z,6.00
